sensor_id;sensor_type;location;lat;lon;timestamp;P1;durP1;ratioP1;P2;durP2;ratioP2
8088;SDS011;57635;49.194;12.104;2023-02-13T00:00:00;15.37;;;13.87;;
8088;SDS011;57635;49.194;12.104;2023-02-13T00:02:28;15.17;;;13.60;;
8088;SDS011;57635;49.194;12.104;2023-02-13T00:04:56;15.07;;;13.53;;
8088;SDS011;57635;49.194;12.104;2023-02-13T00:07:23;16.47;;;14.77;;
8088;SDS011;57635;49.194;12.104;2023-02-13T00:09:51;14.80;;;13.40;;
8088;SDS011;57635;49.194;12.104;2023-02-13T00:12:20;15.80;;;14.10;;
8088;SDS011;57635;49.194;12.104;2023-02-13T00:14:47;14.80;;;13.30;;
8088;SDS011;57635;49.194;12.104;2023-02-13T00:17:15;15.67;;;14.07;;
8088;SDS011;57635;49.194;12.104;2023-02-13T00:19:42;15.77;;;14.17;;
8088;SDS011;57635;49.194;12.104;2023-02-13T00:22:10;14.67;;;13.20;;
8088;SDS011;57635;49.194;12.104;2023-02-13T00:24:38;15.80;;;14.20;;
8088;SDS011;57635;49.194;12.104;2023-02-13T00:27:05;15.37;;;13.93;;
8088;SDS011;57635;49.194;12.104;2023-02-13T00:29:34;16.63;;;14.90;;
8088;SDS011;57635;49.194;12.104;2023-02-13T00:32:02;15.97;;;14.37;;
8088;SDS011;57635;49.194;12.104;2023-02-13T00:34:29;17.37;;;14.47;;
8088;SDS011;57635;49.194;12.104;2023-02-13T00:36:57;15.17;;;13.67;;
8088;SDS011;57635;49.194;12.104;2023-02-13T00:39:24;16.23;;;14.63;;
8088;SDS011;57635;49.194;12.104;2023-02-13T00:41:52;15.63;;;14.10;;
8088;SDS011;57635;49.194;12.104;2023-02-13T00:44:20;16.50;;;14.73;;
8088;SDS011;57635;49.194;12.104;2023-02-13T00:46:49;15.03;;;13.53;;
8088;SDS011;57635;49.194;12.104;2023-02-13T00:49:16;16.00;;;14.30;;
8088;SDS011;57635;49.194;12.104;2023-02-13T00:51:44;15.13;;;13.60;;
8088;SDS011;57635;49.194;12.104;2023-02-13T00:54:11;15.37;;;13.57;;
8088;SDS011;57635;49.194;12.104;2023-02-13T00:56:39;14.73;;;13.33;;
8088;SDS011;57635;49.194;12.104;2023-02-13T00:59:07;15.00;;;13.30;;
8088;SDS011;57635;49.194;12.104;2023-02-13T01:01:34;14.30;;;12.87;;
8088;SDS011;57635;49.194;12.104;2023-02-13T01:04:03;14.77;;;13.30;;
8088;SDS011;57635;49.194;12.104;2023-02-13T01:06:31;15.20;;;13.67;;
8088;SDS011;57635;49.194;12.104;2023-02-13T01:08:58;15.27;;;13.67;;
8088;SDS011;57635;49.194;12.104;2023-02-13T01:11:26;17.00;;;14.47;;
8088;SDS011;57635;49.194;12.104;2023-02-13T01:13:53;15.30;;;13.27;;
8088;SDS011;57635;49.194;12.104;2023-02-13T01:16:21;16.10;;;14.13;;
8088;SDS011;57635;49.194;12.104;2023-02-13T01:18:49;16.43;;;14.73;;
8088;SDS011;57635;49.194;12.104;2023-02-13T01:21:19;14.63;;;13.10;;
8088;SDS011;57635;49.194;12.104;2023-02-13T01:23:48;17.20;;;15.27;;
8088;SDS011;57635;49.194;12.104;2023-02-13T01:26:17;18.47;;;15.50;;
8088;SDS011;57635;49.194;12.104;2023-02-13T01:28:46;17.40;;;15.60;;
8088;SDS011;57635;49.194;12.104;2023-02-13T01:31:14;18.23;;;16.33;;
8088;SDS011;57635;49.194;12.104;2023-02-13T01:33:42;16.37;;;14.40;;
8088;SDS011;57635;49.194;12.104;2023-02-13T01:36:10;18.33;;;15.07;;
8088;SDS011;57635;49.194;12.104;2023-02-13T01:38:40;16.20;;;14.47;;
8088;SDS011;57635;49.194;12.104;2023-02-13T01:41:08;15.50;;;13.90;;
8088;SDS011;57635;49.194;12.104;2023-02-13T01:43:46;14.13;;;12.67;;
8088;SDS011;57635;49.194;12.104;2023-02-13T01:46:18;15.83;;;14.00;;
8088;SDS011;57635;49.194;12.104;2023-02-13T01:48:48;14.60;;;13.13;;
8088;SDS011;57635;49.194;12.104;2023-02-13T01:51:18;16.03;;;14.20;;
8088;SDS011;57635;49.194;12.104;2023-02-13T01:53:50;17.00;;;13.57;;
8088;SDS011;57635;49.194;12.104;2023-02-13T01:56:21;16.43;;;13.97;;
8088;SDS011;57635;49.194;12.104;2023-02-13T01:58:51;18.60;;;13.80;;
8088;SDS011;57635;49.194;12.104;2023-02-13T02:01:21;18.63;;;15.33;;
8088;SDS011;57635;49.194;12.104;2023-02-13T02:03:50;17.83;;;14.87;;
8088;SDS011;57635;49.194;12.104;2023-02-13T02:06:22;21.17;;;17.07;;
8088;SDS011;57635;49.194;12.104;2023-02-13T02:08:54;25.67;;;19.80;;
8088;SDS011;57635;49.194;12.104;2023-02-13T02:11:27;26.57;;;20.03;;
8088;SDS011;57635;49.194;12.104;2023-02-13T02:13:58;29.10;;;21.50;;
8088;SDS011;57635;49.194;12.104;2023-02-13T02:16:28;24.47;;;20.33;;
8088;SDS011;57635;49.194;12.104;2023-02-13T02:18:55;27.63;;;22.20;;
8088;SDS011;57635;49.194;12.104;2023-02-13T02:27:38;34.67;;;23.17;;
8088;SDS011;57635;49.194;12.104;2023-02-13T02:33:22;34.77;;;22.50;;
8088;SDS011;57635;49.194;12.104;2023-02-13T02:36:00;36.43;;;23.90;;
8088;SDS011;57635;49.194;12.104;2023-02-13T02:38:39;35.80;;;24.43;;
8088;SDS011;57635;49.194;12.104;2023-02-13T02:41:15;61.30;;;28.77;;
8088;SDS011;57635;49.194;12.104;2023-02-13T02:44:07;35.63;;;24.90;;
8088;SDS011;57635;49.194;12.104;2023-02-13T02:46:44;37.53;;;24.90;;
8088;SDS011;57635;49.194;12.104;2023-02-13T02:49:35;38.67;;;26.10;;
8088;SDS011;57635;49.194;12.104;2023-02-13T02:52:19;36.17;;;24.97;;
8088;SDS011;57635;49.194;12.104;2023-02-13T02:54:55;35.37;;;24.00;;
8088;SDS011;57635;49.194;12.104;2023-02-13T02:57:35;37.30;;;26.03;;
8088;SDS011;57635;49.194;12.104;2023-02-13T03:00:23;38.03;;;25.87;;
8088;SDS011;57635;49.194;12.104;2023-02-13T03:03:11;36.23;;;24.90;;
8088;SDS011;57635;49.194;12.104;2023-02-13T03:06:01;39.07;;;25.50;;
8088;SDS011;57635;49.194;12.104;2023-02-13T03:08:37;39.70;;;26.00;;
8088;SDS011;57635;49.194;12.104;2023-02-13T03:11:23;32.80;;;25.93;;
8088;SDS011;57635;49.194;12.104;2023-02-13T03:14:09;35.33;;;24.17;;
8088;SDS011;57635;49.194;12.104;2023-02-13T03:16:38;46.87;;;27.17;;
8088;SDS011;57635;49.194;12.104;2023-02-13T03:19:26;38.03;;;25.27;;
8088;SDS011;57635;49.194;12.104;2023-02-13T03:22:23;34.80;;;25.00;;
8088;SDS011;57635;49.194;12.104;2023-02-13T03:24:59;31.20;;;24.47;;
8088;SDS011;57635;49.194;12.104;2023-02-13T03:27:36;39.60;;;26.07;;
8088;SDS011;57635;49.194;12.104;2023-02-13T03:30:28;38.03;;;25.80;;
8088;SDS011;57635;49.194;12.104;2023-02-13T03:33:04;55.73;;;28.07;;
8088;SDS011;57635;49.194;12.104;2023-02-13T03:35:40;46.90;;;28.10;;
8088;SDS011;57635;49.194;12.104;2023-02-13T03:38:28;44.30;;;26.90;;
8088;SDS011;57635;49.194;12.104;2023-02-13T03:41:00;43.37;;;27.33;;
8088;SDS011;57635;49.194;12.104;2023-02-13T03:43:49;39.93;;;27.30;;
8088;SDS011;57635;49.194;12.104;2023-02-13T03:46:33;38.80;;;25.77;;
8088;SDS011;57635;49.194;12.104;2023-02-13T03:49:02;47.47;;;28.57;;
8088;SDS011;57635;49.194;12.104;2023-02-13T03:51:49;51.43;;;26.83;;
8088;SDS011;57635;49.194;12.104;2023-02-13T03:54:21;40.03;;;25.57;;
8088;SDS011;57635;49.194;12.104;2023-02-13T03:57:08;41.50;;;26.73;;
8088;SDS011;57635;49.194;12.104;2023-02-13T03:59:53;40.23;;;26.90;;
8088;SDS011;57635;49.194;12.104;2023-02-13T04:02:23;38.40;;;27.17;;
8088;SDS011;57635;49.194;12.104;2023-02-13T04:04:56;54.50;;;26.57;;
8088;SDS011;57635;49.194;12.104;2023-02-13T04:07:26;41.37;;;26.27;;
8088;SDS011;57635;49.194;12.104;2023-02-13T04:09:59;36.20;;;25.53;;
8088;SDS011;57635;49.194;12.104;2023-02-13T04:12:37;34.50;;;24.27;;
8088;SDS011;57635;49.194;12.104;2023-02-13T04:15:08;39.33;;;24.70;;
8088;SDS011;57635;49.194;12.104;2023-02-13T04:17:40;38.77;;;24.03;;
8088;SDS011;57635;49.194;12.104;2023-02-13T04:20:09;37.57;;;24.47;;
8088;SDS011;57635;49.194;12.104;2023-02-13T04:22:40;29.77;;;24.33;;
8088;SDS011;57635;49.194;12.104;2023-02-13T04:25:10;33.73;;;23.43;;
8088;SDS011;57635;49.194;12.104;2023-02-13T04:27:39;37.37;;;24.63;;
8088;SDS011;57635;49.194;12.104;2023-02-13T04:30:07;38.20;;;24.83;;
8088;SDS011;57635;49.194;12.104;2023-02-13T04:32:35;38.83;;;24.70;;
8088;SDS011;57635;49.194;12.104;2023-02-13T04:35:03;39.73;;;25.20;;
8088;SDS011;57635;49.194;12.104;2023-02-13T04:37:31;42.07;;;26.03;;
8088;SDS011;57635;49.194;12.104;2023-02-13T04:39:58;36.63;;;23.77;;
8088;SDS011;57635;49.194;12.104;2023-02-13T04:42:28;39.10;;;24.57;;
8088;SDS011;57635;49.194;12.104;2023-02-13T04:44:55;32.87;;;23.30;;
8088;SDS011;57635;49.194;12.104;2023-02-13T04:47:23;31.57;;;24.10;;
8088;SDS011;57635;49.194;12.104;2023-02-13T04:49:50;39.63;;;24.40;;
8088;SDS011;57635;49.194;12.104;2023-02-13T04:52:18;40.73;;;25.27;;
8088;SDS011;57635;49.194;12.104;2023-02-13T04:54:45;36.60;;;22.77;;
8088;SDS011;57635;49.194;12.104;2023-02-13T04:57:13;37.40;;;22.90;;
8088;SDS011;57635;49.194;12.104;2023-02-13T04:59:42;32.80;;;23.77;;
8088;SDS011;57635;49.194;12.104;2023-02-13T05:02:09;33.73;;;24.27;;
8088;SDS011;57635;49.194;12.104;2023-02-13T05:04:37;35.60;;;24.20;;
8088;SDS011;57635;49.194;12.104;2023-02-13T05:07:04;35.87;;;24.63;;
8088;SDS011;57635;49.194;12.104;2023-02-13T05:09:32;39.80;;;25.23;;
8088;SDS011;57635;49.194;12.104;2023-02-13T05:12:00;30.10;;;22.13;;
8088;SDS011;57635;49.194;12.104;2023-02-13T05:14:27;38.33;;;22.80;;
8088;SDS011;57635;49.194;12.104;2023-02-13T05:16:56;35.13;;;23.00;;
8088;SDS011;57635;49.194;12.104;2023-02-13T05:19:24;34.37;;;23.47;;
8088;SDS011;57635;49.194;12.104;2023-02-13T05:21:52;30.47;;;21.43;;
8088;SDS011;57635;49.194;12.104;2023-02-13T05:24:37;28.77;;;21.63;;
8088;SDS011;57635;49.194;12.104;2023-02-13T05:27:04;33.30;;;23.07;;
8088;SDS011;57635;49.194;12.104;2023-02-13T05:29:32;30.93;;;21.40;;
8088;SDS011;57635;49.194;12.104;2023-02-13T05:32:01;31.97;;;23.00;;
8088;SDS011;57635;49.194;12.104;2023-02-13T05:34:29;36.77;;;23.37;;
8088;SDS011;57635;49.194;12.104;2023-02-13T05:36:56;31.43;;;22.93;;
8088;SDS011;57635;49.194;12.104;2023-02-13T05:39:24;31.00;;;23.13;;
8088;SDS011;57635;49.194;12.104;2023-02-13T05:41:51;36.50;;;22.87;;
8088;SDS011;57635;49.194;12.104;2023-02-13T05:44:19;31.43;;;23.00;;
8088;SDS011;57635;49.194;12.104;2023-02-13T05:46:47;34.70;;;22.83;;
8088;SDS011;57635;49.194;12.104;2023-02-13T05:49:16;35.20;;;23.77;;
8088;SDS011;57635;49.194;12.104;2023-02-13T05:51:43;35.57;;;24.13;;
8088;SDS011;57635;49.194;12.104;2023-02-13T05:54:11;34.13;;;22.60;;
8088;SDS011;57635;49.194;12.104;2023-02-13T05:56:39;35.90;;;24.30;;
8088;SDS011;57635;49.194;12.104;2023-02-13T05:59:07;36.87;;;24.73;;
8088;SDS011;57635;49.194;12.104;2023-02-13T06:01:34;32.73;;;23.80;;
8088;SDS011;57635;49.194;12.104;2023-02-13T06:04:02;39.07;;;24.20;;
8088;SDS011;57635;49.194;12.104;2023-02-13T06:06:31;35.50;;;23.03;;
8088;SDS011;57635;49.194;12.104;2023-02-13T06:08:59;34.13;;;22.17;;
8088;SDS011;57635;49.194;12.104;2023-02-13T06:11:27;30.70;;;22.73;;
8088;SDS011;57635;49.194;12.104;2023-02-13T06:13:54;30.27;;;21.60;;
8088;SDS011;57635;49.194;12.104;2023-02-13T06:16:22;32.03;;;22.10;;
8088;SDS011;57635;49.194;12.104;2023-02-13T06:18:50;27.43;;;21.67;;
8088;SDS011;57635;49.194;12.104;2023-02-13T06:21:17;33.60;;;24.90;;
8088;SDS011;57635;49.194;12.104;2023-02-13T06:23:46;29.77;;;21.73;;
8088;SDS011;57635;49.194;12.104;2023-02-13T06:26:14;35.50;;;22.60;;
8088;SDS011;57635;49.194;12.104;2023-02-13T06:28:41;33.40;;;21.83;;
8088;SDS011;57635;49.194;12.104;2023-02-13T06:31:09;35.87;;;24.27;;
8088;SDS011;57635;49.194;12.104;2023-02-13T06:33:37;35.03;;;22.53;;
8088;SDS011;57635;49.194;12.104;2023-02-13T06:36:05;27.97;;;21.90;;
8088;SDS011;57635;49.194;12.104;2023-02-13T06:38:33;30.27;;;23.17;;
8088;SDS011;57635;49.194;12.104;2023-02-13T06:41:02;35.43;;;22.03;;
8088;SDS011;57635;49.194;12.104;2023-02-13T06:43:30;31.07;;;21.87;;
8088;SDS011;57635;49.194;12.104;2023-02-13T06:45:57;29.77;;;20.60;;
8088;SDS011;57635;49.194;12.104;2023-02-13T06:48:25;34.13;;;22.60;;
8088;SDS011;57635;49.194;12.104;2023-02-13T06:50:53;33.27;;;21.07;;
8088;SDS011;57635;49.194;12.104;2023-02-13T06:53:21;25.57;;;19.97;;
8088;SDS011;57635;49.194;12.104;2023-02-13T06:55:50;26.03;;;19.37;;
8088;SDS011;57635;49.194;12.104;2023-02-13T06:58:21;24.20;;;20.70;;
8088;SDS011;57635;49.194;12.104;2023-02-13T07:00:49;27.33;;;22.30;;
8088;SDS011;57635;49.194;12.104;2023-02-13T07:03:17;29.50;;;21.63;;
8088;SDS011;57635;49.194;12.104;2023-02-13T07:05:45;30.17;;;23.50;;
8088;SDS011;57635;49.194;12.104;2023-02-13T07:08:12;28.87;;;21.77;;
8088;SDS011;57635;49.194;12.104;2023-02-13T07:10:40;30.00;;;21.20;;
8088;SDS011;57635;49.194;12.104;2023-02-13T07:13:08;31.70;;;21.80;;
8088;SDS011;57635;49.194;12.104;2023-02-13T07:15:38;29.43;;;22.80;;
8088;SDS011;57635;49.194;12.104;2023-02-13T07:18:05;29.63;;;22.10;;
8088;SDS011;57635;49.194;12.104;2023-02-13T07:20:34;33.80;;;23.93;;
8088;SDS011;57635;49.194;12.104;2023-02-13T07:23:02;34.73;;;25.53;;
8088;SDS011;57635;49.194;12.104;2023-02-13T07:25:30;30.97;;;23.43;;
8088;SDS011;57635;49.194;12.104;2023-02-13T07:28:02;28.10;;;20.03;;
8088;SDS011;57635;49.194;12.104;2023-02-13T07:30:30;24.23;;;19.37;;
8088;SDS011;57635;49.194;12.104;2023-02-13T07:33:01;21.53;;;17.53;;
8088;SDS011;57635;49.194;12.104;2023-02-13T07:35:30;22.63;;;17.60;;
8088;SDS011;57635;49.194;12.104;2023-02-13T07:37:57;25.33;;;19.07;;
8088;SDS011;57635;49.194;12.104;2023-02-13T07:40:25;23.20;;;18.50;;
8088;SDS011;57635;49.194;12.104;2023-02-13T07:42:54;23.17;;;17.97;;
8088;SDS011;57635;49.194;12.104;2023-02-13T07:45:21;23.00;;;18.30;;
8088;SDS011;57635;49.194;12.104;2023-02-13T07:47:49;17.40;;;15.43;;
8088;SDS011;57635;49.194;12.104;2023-02-13T07:50:18;19.57;;;15.57;;
8088;SDS011;57635;49.194;12.104;2023-02-13T07:52:51;15.73;;;13.53;;
8088;SDS011;57635;49.194;12.104;2023-02-13T07:55:19;18.07;;;14.83;;
8088;SDS011;57635;49.194;12.104;2023-02-13T07:57:47;18.73;;;15.57;;
8088;SDS011;57635;49.194;12.104;2023-02-13T08:00:15;17.70;;;14.87;;
8088;SDS011;57635;49.194;12.104;2023-02-13T08:02:43;23.33;;;15.87;;
8088;SDS011;57635;49.194;12.104;2023-02-13T08:05:11;21.20;;;16.40;;
8088;SDS011;57635;49.194;12.104;2023-02-13T08:07:40;19.37;;;15.43;;
8088;SDS011;57635;49.194;12.104;2023-02-13T08:10:10;22.30;;;15.77;;
8088;SDS011;57635;49.194;12.104;2023-02-13T08:12:56;22.43;;;17.33;;
8088;SDS011;57635;49.194;12.104;2023-02-13T08:15:24;22.30;;;16.77;;
8088;SDS011;57635;49.194;12.104;2023-02-13T08:17:52;18.73;;;15.23;;
8088;SDS011;57635;49.194;12.104;2023-02-13T08:20:20;17.87;;;15.43;;
8088;SDS011;57635;49.194;12.104;2023-02-13T08:22:49;20.57;;;16.67;;
8088;SDS011;57635;49.194;12.104;2023-02-13T08:25:17;21.10;;;16.70;;
8088;SDS011;57635;49.194;12.104;2023-02-13T08:27:45;22.30;;;17.63;;
8088;SDS011;57635;49.194;12.104;2023-02-13T08:30:12;20.30;;;17.13;;
8088;SDS011;57635;49.194;12.104;2023-02-13T08:32:41;20.00;;;16.67;;
8088;SDS011;57635;49.194;12.104;2023-02-13T08:35:19;18.83;;;16.83;;
8088;SDS011;57635;49.194;12.104;2023-02-13T08:37:49;17.60;;;14.87;;
8088;SDS011;57635;49.194;12.104;2023-02-13T08:40:17;18.83;;;15.50;;
8088;SDS011;57635;49.194;12.104;2023-02-13T08:42:44;16.23;;;14.53;;
8088;SDS011;57635;49.194;12.104;2023-02-13T08:45:12;18.43;;;14.53;;
8088;SDS011;57635;49.194;12.104;2023-02-13T08:47:39;15.00;;;13.13;;
8088;SDS011;57635;49.194;12.104;2023-02-13T08:50:07;16.40;;;14.07;;
8088;SDS011;57635;49.194;12.104;2023-02-13T08:52:35;18.40;;;14.20;;
8088;SDS011;57635;49.194;12.104;2023-02-13T08:55:04;19.00;;;15.50;;
8088;SDS011;57635;49.194;12.104;2023-02-13T08:57:32;17.37;;;14.03;;
8088;SDS011;57635;49.194;12.104;2023-02-13T09:00:00;17.20;;;14.53;;
8088;SDS011;57635;49.194;12.104;2023-02-13T09:02:27;15.13;;;13.27;;
8088;SDS011;57635;49.194;12.104;2023-02-13T09:04:55;15.03;;;13.53;;
8088;SDS011;57635;49.194;12.104;2023-02-13T09:07:22;14.20;;;12.87;;
8088;SDS011;57635;49.194;12.104;2023-02-13T09:09:50;14.10;;;12.53;;
8088;SDS011;57635;49.194;12.104;2023-02-13T09:12:19;16.73;;;14.90;;
8088;SDS011;57635;49.194;12.104;2023-02-13T09:14:47;14.67;;;13.10;;
8088;SDS011;57635;49.194;12.104;2023-02-13T09:17:14;14.10;;;12.60;;
8088;SDS011;57635;49.194;12.104;2023-02-13T09:19:44;15.83;;;12.57;;
8088;SDS011;57635;49.194;12.104;2023-02-13T09:22:12;13.73;;;12.20;;
8088;SDS011;57635;49.194;12.104;2023-02-13T09:24:42;13.67;;;12.37;;
8088;SDS011;57635;49.194;12.104;2023-02-13T09:27:10;14.13;;;12.63;;
8088;SDS011;57635;49.194;12.104;2023-02-13T09:29:39;15.57;;;13.23;;
8088;SDS011;57635;49.194;12.104;2023-02-13T09:32:07;16.97;;;13.90;;
8088;SDS011;57635;49.194;12.104;2023-02-13T09:34:35;13.17;;;11.97;;
8088;SDS011;57635;49.194;12.104;2023-02-13T09:37:02;13.83;;;12.20;;
8088;SDS011;57635;49.194;12.104;2023-02-13T09:39:30;14.80;;;11.63;;
8088;SDS011;57635;49.194;12.104;2023-02-13T09:41:57;12.77;;;11.50;;
8088;SDS011;57635;49.194;12.104;2023-02-13T09:44:28;13.70;;;11.53;;
8088;SDS011;57635;49.194;12.104;2023-02-13T09:47:03;12.80;;;11.17;;
8088;SDS011;57635;49.194;12.104;2023-02-13T09:49:41;12.87;;;11.57;;
8088;SDS011;57635;49.194;12.104;2023-02-13T09:52:10;12.43;;;11.10;;
8088;SDS011;57635;49.194;12.104;2023-02-13T09:54:38;14.13;;;11.70;;
8088;SDS011;57635;49.194;12.104;2023-02-13T09:57:06;13.77;;;12.27;;
8088;SDS011;57635;49.194;12.104;2023-02-13T09:59:42;15.10;;;12.83;;
8088;SDS011;57635;49.194;12.104;2023-02-13T10:02:22;13.70;;;12.23;;
8088;SDS011;57635;49.194;12.104;2023-02-13T10:04:58;15.20;;;13.63;;
8088;SDS011;57635;49.194;12.104;2023-02-13T10:07:32;14.90;;;13.37;;
8088;SDS011;57635;49.194;12.104;2023-02-13T10:10:06;15.10;;;13.67;;
8088;SDS011;57635;49.194;12.104;2023-02-13T10:12:45;15.43;;;13.83;;
8088;SDS011;57635;49.194;12.104;2023-02-13T10:15:20;16.67;;;14.90;;
8088;SDS011;57635;49.194;12.104;2023-02-13T10:17:53;15.80;;;14.10;;
8088;SDS011;57635;49.194;12.104;2023-02-13T10:20:24;16.73;;;15.00;;
8088;SDS011;57635;49.194;12.104;2023-02-13T10:22:55;17.10;;;15.07;;
8088;SDS011;57635;49.194;12.104;2023-02-13T10:25:26;17.97;;;16.00;;
8088;SDS011;57635;49.194;12.104;2023-02-13T10:27:57;17.03;;;15.33;;
8088;SDS011;57635;49.194;12.104;2023-02-13T10:30:28;18.23;;;15.60;;
8088;SDS011;57635;49.194;12.104;2023-02-13T10:33:01;17.67;;;15.93;;
8088;SDS011;57635;49.194;12.104;2023-02-13T10:35:47;18.40;;;16.43;;
8088;SDS011;57635;49.194;12.104;2023-02-13T10:38:18;16.37;;;14.80;;
8088;SDS011;57635;49.194;12.104;2023-02-13T10:40:52;18.07;;;16.10;;
8088;SDS011;57635;49.194;12.104;2023-02-13T10:43:27;16.73;;;14.93;;
8088;SDS011;57635;49.194;12.104;2023-02-13T10:45:59;18.87;;;15.80;;
8088;SDS011;57635;49.194;12.104;2023-02-13T10:48:38;17.40;;;15.23;;
8088;SDS011;57635;49.194;12.104;2023-02-13T10:51:14;17.13;;;15.40;;
8088;SDS011;57635;49.194;12.104;2023-02-13T10:53:48;16.57;;;14.90;;
8088;SDS011;57635;49.194;12.104;2023-02-13T10:56:24;17.60;;;15.80;;
8088;SDS011;57635;49.194;12.104;2023-02-13T10:58:57;17.70;;;15.90;;
8088;SDS011;57635;49.194;12.104;2023-02-13T11:01:32;17.27;;;15.47;;
8088;SDS011;57635;49.194;12.104;2023-02-13T11:04:05;16.57;;;14.97;;
8088;SDS011;57635;49.194;12.104;2023-02-13T11:06:35;17.33;;;15.63;;
8088;SDS011;57635;49.194;12.104;2023-02-13T11:09:04;16.60;;;14.90;;
8088;SDS011;57635;49.194;12.104;2023-02-13T11:11:34;15.50;;;14.00;;
8088;SDS011;57635;49.194;12.104;2023-02-13T11:14:07;16.63;;;15.03;;
8088;SDS011;57635;49.194;12.104;2023-02-13T11:16:39;17.03;;;15.43;;
8088;SDS011;57635;49.194;12.104;2023-02-13T11:19:18;16.67;;;15.07;;
8088;SDS011;57635;49.194;12.104;2023-02-13T11:21:47;15.40;;;13.90;;
8088;SDS011;57635;49.194;12.104;2023-02-13T11:24:21;15.10;;;13.60;;
8088;SDS011;57635;49.194;12.104;2023-02-13T11:26:50;15.97;;;14.27;;
8088;SDS011;57635;49.194;12.104;2023-02-13T11:29:21;15.97;;;13.63;;
8088;SDS011;57635;49.194;12.104;2023-02-13T11:31:59;16.17;;;14.57;;
8088;SDS011;57635;49.194;12.104;2023-02-13T11:34:30;15.10;;;13.70;;
8088;SDS011;57635;49.194;12.104;2023-02-13T11:37:16;16.10;;;14.50;;
8088;SDS011;57635;49.194;12.104;2023-02-13T11:39:45;14.93;;;13.53;;
8088;SDS011;57635;49.194;12.104;2023-02-13T11:42:18;15.53;;;13.93;;
8088;SDS011;57635;49.194;12.104;2023-02-13T11:44:51;16.30;;;14.77;;
8088;SDS011;57635;49.194;12.104;2023-02-13T11:47:33;15.63;;;14.13;;
8088;SDS011;57635;49.194;12.104;2023-02-13T11:50:06;15.90;;;14.13;;
8088;SDS011;57635;49.194;12.104;2023-02-13T11:52:51;16.13;;;14.43;;
8088;SDS011;57635;49.194;12.104;2023-02-13T11:55:26;13.97;;;12.77;;
8088;SDS011;57635;49.194;12.104;2023-02-13T11:57:56;14.67;;;13.37;;
8088;SDS011;57635;49.194;12.104;2023-02-13T12:00:27;15.30;;;13.80;;
8088;SDS011;57635;49.194;12.104;2023-02-13T12:02:58;15.20;;;13.83;;
8088;SDS011;57635;49.194;12.104;2023-02-13T12:05:28;15.57;;;13.83;;
8088;SDS011;57635;49.194;12.104;2023-02-13T12:07:56;18.53;;;16.53;;
8088;SDS011;57635;49.194;12.104;2023-02-13T12:10:26;15.43;;;13.83;;
8088;SDS011;57635;49.194;12.104;2023-02-13T12:12:55;15.67;;;14.27;;
8088;SDS011;57635;49.194;12.104;2023-02-13T12:15:25;16.30;;;14.67;;
8088;SDS011;57635;49.194;12.104;2023-02-13T12:17:57;16.00;;;14.47;;
8088;SDS011;57635;49.194;12.104;2023-02-13T12:20:33;14.77;;;13.27;;
8088;SDS011;57635;49.194;12.104;2023-02-13T12:23:05;15.37;;;13.90;;
8088;SDS011;57635;49.194;12.104;2023-02-13T12:25:39;15.50;;;13.30;;
8088;SDS011;57635;49.194;12.104;2023-02-13T12:28:15;13.77;;;12.57;;
8088;SDS011;57635;49.194;12.104;2023-02-13T12:34:04;12.83;;;11.53;;
8088;SDS011;57635;49.194;12.104;2023-02-13T12:36:48;14.13;;;12.57;;
8088;SDS011;57635;49.194;12.104;2023-02-13T12:39:24;13.60;;;12.20;;
8088;SDS011;57635;49.194;12.104;2023-02-13T12:41:57;13.20;;;11.90;;
8088;SDS011;57635;49.194;12.104;2023-02-13T12:44:39;11.63;;;10.50;;
8088;SDS011;57635;49.194;12.104;2023-02-13T12:47:15;14.67;;;13.27;;
8088;SDS011;57635;49.194;12.104;2023-02-13T12:49:51;10.60;;;9.50;;
8088;SDS011;57635;49.194;12.104;2023-02-13T12:52:41;10.50;;;9.40;;
8088;SDS011;57635;49.194;12.104;2023-02-13T12:58:32;13.53;;;9.90;;
8088;SDS011;57635;49.194;12.104;2023-02-13T13:01:15;8.53;;;7.83;;
8088;SDS011;57635;49.194;12.104;2023-02-13T13:03:51;7.50;;;6.90;;
8088;SDS011;57635;49.194;12.104;2023-02-13T13:06:34;6.60;;;6.00;;
8088;SDS011;57635;49.194;12.104;2023-02-13T13:09:12;8.00;;;7.30;;
8088;SDS011;57635;49.194;12.104;2023-02-13T13:14:49;10.03;;;9.03;;
8088;SDS011;57635;49.194;12.104;2023-02-13T13:17:24;7.93;;;7.33;;
8088;SDS011;57635;49.194;12.104;2023-02-13T13:20:00;8.97;;;8.17;;
8088;SDS011;57635;49.194;12.104;2023-02-13T13:22:36;9.60;;;8.80;;
8088;SDS011;57635;49.194;12.104;2023-02-13T13:25:09;8.50;;;7.80;;
8088;SDS011;57635;49.194;12.104;2023-02-13T13:27:43;8.83;;;8.13;;
8088;SDS011;57635;49.194;12.104;2023-02-13T13:30:13;8.60;;;7.80;;
8088;SDS011;57635;49.194;12.104;2023-02-13T13:32:44;7.93;;;7.27;;
8088;SDS011;57635;49.194;12.104;2023-02-13T13:35:12;9.57;;;8.67;;
8088;SDS011;57635;49.194;12.104;2023-02-13T13:37:41;8.37;;;7.60;;
8088;SDS011;57635;49.194;12.104;2023-02-13T13:40:20;8.63;;;7.83;;
8088;SDS011;57635;49.194;12.104;2023-02-13T13:42:54;8.27;;;7.57;;
8088;SDS011;57635;49.194;12.104;2023-02-13T13:45:27;8.23;;;7.63;;
8088;SDS011;57635;49.194;12.104;2023-02-13T13:48:09;8.67;;;7.83;;
8088;SDS011;57635;49.194;12.104;2023-02-13T13:50:50;7.97;;;7.37;;
8088;SDS011;57635;49.194;12.104;2023-02-13T13:53:19;6.83;;;6.33;;
8088;SDS011;57635;49.194;12.104;2023-02-13T13:55:59;6.23;;;5.83;;
8088;SDS011;57635;49.194;12.104;2023-02-13T13:58:39;6.97;;;6.43;;
8088;SDS011;57635;49.194;12.104;2023-02-13T14:01:18;6.90;;;6.40;;
8088;SDS011;57635;49.194;12.104;2023-02-13T14:03:51;8.00;;;7.30;;
8088;SDS011;57635;49.194;12.104;2023-02-13T14:06:20;9.07;;;8.20;;
8088;SDS011;57635;49.194;12.104;2023-02-13T14:08:53;8.90;;;8.20;;
8088;SDS011;57635;49.194;12.104;2023-02-13T14:11:25;8.17;;;7.47;;
8088;SDS011;57635;49.194;12.104;2023-02-13T14:13:58;8.70;;;7.90;;
8088;SDS011;57635;49.194;12.104;2023-02-13T14:16:36;8.93;;;8.07;;
8088;SDS011;57635;49.194;12.104;2023-02-13T14:19:05;8.30;;;7.60;;
8088;SDS011;57635;49.194;12.104;2023-02-13T14:21:50;9.53;;;8.70;;
8088;SDS011;57635;49.194;12.104;2023-02-13T14:24:18;9.73;;;8.83;;
8088;SDS011;57635;49.194;12.104;2023-02-13T14:26:52;10.40;;;9.43;;
8088;SDS011;57635;49.194;12.104;2023-02-13T14:29:31;9.23;;;8.33;;
8088;SDS011;57635;49.194;12.104;2023-02-13T14:34:48;13.13;;;10.60;;
8088;SDS011;57635;49.194;12.104;2023-02-13T14:37:20;10.83;;;9.73;;
8088;SDS011;57635;49.194;12.104;2023-02-13T14:40:11;11.07;;;10.00;;
8088;SDS011;57635;49.194;12.104;2023-02-13T14:43:05;11.63;;;10.43;;
8088;SDS011;57635;49.194;12.104;2023-02-13T14:45:56;10.27;;;9.23;;
8088;SDS011;57635;49.194;12.104;2023-02-13T14:48:32;11.93;;;10.67;;
8088;SDS011;57635;49.194;12.104;2023-02-13T14:51:06;11.43;;;10.17;;
8088;SDS011;57635;49.194;12.104;2023-02-13T14:53:45;10.90;;;9.67;;
8088;SDS011;57635;49.194;12.104;2023-02-13T14:56:17;10.67;;;9.60;;
8088;SDS011;57635;49.194;12.104;2023-02-13T14:58:49;11.07;;;10.07;;
8088;SDS011;57635;49.194;12.104;2023-02-13T15:01:29;10.07;;;9.13;;
8088;SDS011;57635;49.194;12.104;2023-02-13T15:04:00;10.17;;;9.27;;
8088;SDS011;57635;49.194;12.104;2023-02-13T15:06:32;10.63;;;9.63;;
8088;SDS011;57635;49.194;12.104;2023-02-13T15:09:03;10.70;;;9.70;;
8088;SDS011;57635;49.194;12.104;2023-02-13T15:11:33;10.10;;;9.10;;